createdAt,value
2019-05-05T00:00:22.350Z,18.55
2019-05-05T00:03:11.973Z,18.12
2019-05-05T00:05:44.424Z,19.12
2019-05-05T00:08:15.299Z,19.12
2019-05-05T00:10:48.871Z,17.98
2019-05-05T00:13:19.958Z,18.15
2019-05-05T00:16:00.230Z,18.12
2019-05-05T00:18:30.862Z,17.30
2019-05-05T00:21:00.414Z,18.17
2019-05-05T00:23:29.862Z,18.40
2019-05-05T00:26:00.514Z,17.65
2019-05-05T00:28:30.026Z,17.30
2019-05-05T00:30:59.509Z,17.42
2019-05-05T00:33:29.030Z,17.70
2019-05-05T00:35:58.882Z,17.77
2019-05-05T00:38:28.398Z,17.37
2019-05-05T00:40:57.943Z,17.23
2019-05-05T00:43:27.406Z,18.87
2019-05-05T00:46:07.266Z,17.75
2019-05-05T00:51:09.922Z,16.37
2019-05-05T00:53:39.366Z,16.75
2019-05-05T00:56:09.014Z,16.97
2019-05-05T00:58:40.110Z,18.40
2019-05-05T01:01:26.402Z,17.65
2019-05-05T01:03:55.850Z,18.12
2019-05-05T01:06:26.966Z,18.35
2019-05-05T01:08:56.422Z,17.37
2019-05-05T01:11:26.041Z,18.32
2019-05-05T01:13:55.558Z,18.82
2019-05-05T01:16:25.117Z,18.37
2019-05-05T01:18:55.350Z,19.15
2019-05-05T01:21:25.081Z,18.98
2019-05-05T01:23:54.920Z,19.02
2019-05-05T01:28:56.284Z,18.60
2019-05-05T01:31:26.158Z,19.60
2019-05-05T01:33:57.329Z,20.35
2019-05-05T01:36:26.878Z,18.12
2019-05-05T01:39:16.451Z,18.55
2019-05-05T01:41:47.635Z,18.87
2019-05-05T01:44:17.157Z,18.60
2019-05-05T01:46:46.639Z,19.40
2019-05-05T01:49:16.268Z,21.37
2019-05-05T01:51:45.875Z,19.57
2019-05-05T01:54:15.336Z,20.48
2019-05-05T01:56:45.150Z,20.80
2019-05-05T02:01:44.633Z,19.35
2019-05-05T02:04:14.548Z,20.15
2019-05-05T02:06:44.440Z,21.10
2019-05-05T02:09:15.931Z,19.57
2019-05-05T02:11:45.475Z,20.48
2019-05-05T02:14:15.639Z,19.75
2019-05-05T02:16:45.321Z,20.48
2019-05-05T02:19:14.836Z,21.23
2019-05-05T02:21:45.325Z,20.37
2019-05-05T02:24:14.851Z,20.12
2019-05-05T02:26:45.562Z,18.20
2019-05-05T02:29:28.810Z,21.37
2019-05-05T02:32:16.293Z,19.50
2019-05-05T02:34:47.548Z,19.67
2019-05-05T02:37:17.162Z,20.05
2019-05-05T02:39:57.909Z,18.57
2019-05-05T02:42:18.890Z,19.25
2019-05-05T02:44:48.707Z,18.02
2019-05-05T02:50:09.056Z,18.85
2019-05-05T02:52:40.757Z,16.30
2019-05-05T02:55:11.750Z,17.77
2019-05-05T02:57:43.815Z,15.93
2019-05-05T03:00:26.771Z,18.77
2019-05-05T03:02:58.422Z,18.67
2019-05-05T03:05:28.320Z,18.25
2019-05-05T03:07:59.435Z,16.35
2019-05-05T03:10:30.632Z,18.00
2019-05-05T03:13:02.318Z,17.82
2019-05-05T03:15:37.529Z,17.90
2019-05-05T03:18:07.238Z,17.62
2019-05-05T03:23:05.530Z,17.27
2019-05-05T03:25:35.115Z,16.67
2019-05-05T03:28:05.031Z,16.20
2019-05-05T03:30:35.693Z,16.65
2019-05-05T03:33:05.816Z,17.27
2019-05-05T03:35:35.534Z,15.70
2019-05-05T03:38:05.250Z,16.25
2019-05-05T03:43:06.999Z,14.05
2019-05-05T03:45:38.334Z,14.75
2019-05-05T03:48:08.146Z,14.25
2019-05-05T03:53:06.346Z,15.10
2019-05-05T03:55:36.040Z,15.63
2019-05-05T04:00:43.351Z,14.38
2019-05-05T04:03:14.674Z,15.90
2019-05-05T04:05:53.718Z,14.13
2019-05-05T04:08:23.536Z,15.58
2019-05-05T04:10:54.659Z,16.00
2019-05-05T04:13:24.454Z,16.77
2019-05-05T04:18:49.711Z,16.60
2019-05-05T04:21:30.366Z,15.93
2019-05-05T04:23:50.256Z,16.40
2019-05-05T04:26:19.702Z,17.73
2019-05-05T04:28:49.182Z,17.70
2019-05-05T04:31:18.634Z,17.42
2019-05-05T04:33:48.110Z,17.10
2019-05-05T04:36:17.571Z,16.02
2019-05-05T04:38:47.047Z,17.75
2019-05-05T04:41:16.502Z,16.77
2019-05-05T04:43:45.975Z,16.42
2019-05-05T04:46:15.435Z,15.53
2019-05-05T04:48:46.550Z,16.82
2019-05-05T04:51:17.651Z,18.32
2019-05-05T04:54:05.032Z,17.05
2019-05-05T04:56:34.986Z,17.95
2019-05-05T04:59:04.810Z,16.57
2019-05-05T05:01:35.664Z,16.20
2019-05-05T05:04:13.750Z,14.75
2019-05-05T05:06:44.989Z,17.15
2019-05-05T05:09:14.722Z,14.93
2019-05-05T05:14:14.416Z,16.05
2019-05-05T05:16:44.330Z,14.90
2019-05-05T05:19:13.939Z,14.10
2019-05-05T05:21:43.815Z,14.98
2019-05-05T05:24:14.612Z,16.48
2019-05-05T05:26:44.336Z,16.80
2019-05-05T05:29:15.057Z,14.93
2019-05-05T05:31:44.842Z,13.10
2019-05-05T05:34:14.844Z,13.80
2019-05-05T05:36:44.513Z,14.00
2019-05-05T05:39:33.563Z,13.30
2019-05-05T05:42:04.570Z,12.95
2019-05-05T05:44:35.819Z,13.35
2019-05-05T05:47:22.043Z,13.53
2019-05-05T05:49:56.569Z,13.25
2019-05-05T05:52:26.022Z,12.25
2019-05-05T05:54:55.498Z,10.95
2019-05-05T05:57:24.959Z,12.03
2019-05-05T05:59:54.916Z,12.10
2019-05-05T06:02:24.391Z,10.63
2019-05-05T06:04:54.039Z,12.95
2019-05-05T06:07:24.524Z,11.00
2019-05-05T06:09:54.266Z,11.85
2019-05-05T06:12:24.831Z,12.43
2019-05-05T06:14:54.310Z,12.15
2019-05-05T06:17:23.877Z,8.95
2019-05-05T06:19:53.526Z,11.83
2019-05-05T06:22:29.213Z,9.20
2019-05-05T06:24:54.197Z,10.13
2019-05-05T06:27:23.702Z,9.63
2019-05-05T06:29:54.314Z,9.03
2019-05-05T06:32:23.888Z,10.13
2019-05-05T06:34:53.547Z,8.43
2019-05-05T06:37:23.830Z,8.35
2019-05-05T06:39:54.991Z,8.38
2019-05-05T06:42:43.515Z,9.13
2019-05-05T06:45:34.173Z,8.20
2019-05-05T06:48:04.302Z,9.03
2019-05-05T06:50:35.046Z,8.78
2019-05-05T06:53:04.568Z,8.65
2019-05-05T06:55:34.241Z,9.38
2019-05-05T06:58:04.596Z,8.53
2019-05-05T07:00:34.776Z,8.30
2019-05-05T07:03:07.707Z,8.80
2019-05-05T07:05:35.274Z,6.92
2019-05-05T07:08:04.794Z,8.18
2019-05-05T07:10:34.259Z,7.28
2019-05-05T07:13:04.949Z,7.00
2019-05-05T07:15:34.647Z,7.92
2019-05-05T07:18:04.098Z,6.67
2019-05-05T07:20:34.653Z,7.03
2019-05-05T07:23:05.349Z,7.00
2019-05-05T07:25:42.916Z,8.10
2019-05-05T07:28:06.431Z,7.00
2019-05-05T07:30:35.903Z,6.72
2019-05-05T07:33:05.411Z,8.60
2019-05-05T07:36:00.239Z,9.18
2019-05-05T07:38:27.030Z,7.53
2019-05-05T07:40:56.505Z,7.22
2019-05-05T07:43:25.941Z,7.97
2019-05-05T07:45:55.414Z,7.42
2019-05-05T07:48:24.854Z,7.47
2019-05-05T07:51:02.144Z,7.05
2019-05-05T07:53:25.386Z,7.03
2019-05-05T07:55:54.849Z,7.40
2019-05-05T07:58:24.383Z,8.35
2019-05-05T08:00:54.168Z,8.95
2019-05-05T08:05:54.493Z,7.53
2019-05-05T08:08:24.491Z,9.93
2019-05-05T08:10:54.229Z,7.65
2019-05-05T08:18:34.599Z,6.97
2019-05-05T08:21:08.226Z,7.67
2019-05-05T08:23:39.302Z,8.85
2019-05-05T08:26:16.223Z,7.90
2019-05-05T08:28:47.306Z,6.12
2019-05-05T08:31:18.416Z,6.12
2019-05-05T08:33:47.859Z,7.28
2019-05-05T08:36:17.334Z,7.75
2019-05-05T08:38:46.850Z,9.10
2019-05-05T08:41:16.306Z,8.08
2019-05-05T08:43:45.842Z,6.85
2019-05-05T08:46:15.277Z,7.55
2019-05-05T08:48:44.849Z,8.60
2019-05-05T08:51:14.342Z,11.22
2019-05-05T08:53:47.898Z,10.30
2019-05-05T08:56:14.890Z,7.15
2019-05-05T08:58:45.435Z,7.60
2019-05-05T09:01:15.071Z,6.87
2019-05-05T09:03:44.642Z,7.37
2019-05-05T09:06:14.155Z,9.85
2019-05-05T09:08:44.261Z,9.33
2019-05-05T09:11:14.122Z,8.98
2019-05-05T09:16:14.565Z,6.40
2019-05-05T09:18:57.808Z,10.78
2019-05-05T09:21:28.330Z,7.58
2019-05-05T09:24:02.594Z,6.37
2019-05-05T09:26:38.166Z,5.60
2019-05-05T09:29:21.273Z,6.15
2019-05-05T09:31:53.911Z,6.72
2019-05-05T09:34:24.062Z,7.78
2019-05-05T09:36:54.449Z,8.55
2019-05-05T09:39:24.114Z,8.15
2019-05-05T09:41:53.749Z,8.10
2019-05-05T09:44:24.143Z,7.03
2019-05-05T09:46:54.944Z,7.00
2019-05-05T09:49:24.736Z,4.97
2019-05-05T09:51:55.374Z,5.55
2019-05-05T09:54:24.872Z,5.17
2019-05-05T09:56:54.770Z,6.12
2019-05-05T10:01:53.960Z,4.15
2019-05-05T10:04:24.834Z,6.50
2019-05-05T10:06:54.308Z,7.30
2019-05-05T10:09:24.249Z,6.80
2019-05-05T10:11:54.147Z,9.33
2019-05-05T10:14:23.834Z,7.75
2019-05-05T10:16:54.045Z,5.55
2019-05-05T10:19:24.358Z,7.30
2019-05-05T10:21:54.023Z,6.90
2019-05-05T10:24:31.267Z,6.15
2019-05-05T10:27:00.939Z,5.78
2019-05-05T10:29:30.448Z,6.78
2019-05-05T10:31:59.934Z,5.55
2019-05-05T10:34:29.439Z,4.20
2019-05-05T10:36:58.921Z,7.53
2019-05-05T10:39:30.031Z,5.92
2019-05-05T10:41:59.571Z,5.45
2019-05-05T10:44:29.076Z,6.35
2019-05-05T10:46:58.633Z,4.75
2019-05-05T10:49:28.214Z,4.87
2019-05-05T10:52:04.021Z,5.12
2019-05-05T10:54:41.592Z,3.83
2019-05-05T10:57:04.700Z,3.92
2019-05-05T10:59:35.251Z,3.87
2019-05-05T11:02:05.149Z,3.60
2019-05-05T11:04:34.942Z,4.40
2019-05-05T11:07:04.587Z,4.08
2019-05-05T11:09:34.655Z,4.15
2019-05-05T11:12:04.150Z,5.78
2019-05-05T11:14:33.819Z,4.15
2019-05-05T11:17:04.433Z,5.62
2019-05-05T11:19:33.990Z,3.62
2019-05-05T11:22:03.467Z,3.30
2019-05-05T11:24:34.593Z,7.25
2019-05-05T11:27:04.536Z,3.72
2019-05-05T11:29:35.671Z,3.75
2019-05-05T11:32:06.922Z,5.60
2019-05-05T11:34:36.411Z,4.50
2019-05-05T11:37:07.524Z,4.62
2019-05-05T11:39:37.100Z,3.10
2019-05-05T11:42:06.675Z,3.77
2019-05-05T11:44:36.184Z,3.98
2019-05-05T11:47:05.735Z,4.00
2019-05-05T11:49:35.228Z,4.75
2019-05-05T11:52:04.784Z,4.12
2019-05-05T11:54:34.255Z,3.33
2019-05-05T11:57:04.387Z,4.05
2019-05-05T11:59:34.537Z,2.90
2019-05-05T12:02:04.082Z,3.10
2019-05-05T12:04:33.765Z,3.42
2019-05-05T12:07:04.111Z,3.22
2019-05-05T12:09:35.432Z,2.75
2019-05-05T12:12:05.043Z,3.22
2019-05-05T12:14:34.955Z,2.60
2019-05-05T12:19:34.127Z,2.62
2019-05-05T12:22:03.665Z,2.10
2019-05-05T12:24:34.867Z,2.27
2019-05-05T12:27:15.020Z,2.52
2019-05-05T12:29:45.291Z,2.33
2019-05-05T12:32:14.937Z,2.20
2019-05-05T12:34:44.649Z,2.55
2019-05-05T12:37:14.349Z,2.72
2019-05-05T12:39:45.123Z,2.72
2019-05-05T12:42:14.588Z,2.67
2019-05-05T12:44:45.737Z,2.62
2019-05-05T12:47:35.243Z,2.35
2019-05-05T12:50:06.154Z,2.40
2019-05-05T12:52:36.587Z,2.22
2019-05-05T12:55:06.678Z,1.65
2019-05-05T12:57:37.219Z,2.20
2019-05-05T13:00:08.023Z,2.00
2019-05-05T13:02:38.568Z,2.08
2019-05-05T13:05:08.147Z,1.98
2019-05-05T13:07:37.704Z,2.20
2019-05-05T13:10:07.832Z,2.12
2019-05-05T13:12:37.518Z,2.35
2019-05-05T13:15:07.710Z,2.00
2019-05-05T13:17:37.418Z,2.35
2019-05-05T13:20:08.883Z,1.95
2019-05-05T13:22:46.091Z,2.15
2019-05-05T13:25:26.163Z,1.80
2019-05-05T13:27:57.495Z,2.33
2019-05-05T13:30:27.086Z,2.98
2019-05-05T13:32:56.590Z,3.45
2019-05-05T13:35:26.172Z,3.55
2019-05-05T13:37:55.707Z,2.77
2019-05-05T13:40:25.356Z,2.75
2019-05-05T13:42:54.841Z,2.90
2019-05-05T13:45:29.112Z,2.92
2019-05-05T13:47:58.819Z,2.42
2019-05-05T13:50:39.112Z,2.72
2019-05-05T13:53:08.724Z,2.37
2019-05-05T13:55:38.280Z,3.00
2019-05-05T13:58:08.866Z,3.35
2019-05-05T14:00:39.651Z,2.33
2019-05-05T14:03:09.199Z,2.62
2019-05-05T14:05:38.831Z,2.62
2019-05-05T14:08:08.432Z,2.27
2019-05-05T14:10:38.096Z,2.35
2019-05-05T14:13:10.370Z,2.55
2019-05-05T14:15:39.145Z,2.85
2019-05-05T14:18:08.701Z,2.47
2019-05-05T14:20:38.271Z,2.65
2019-05-05T14:23:07.835Z,2.42
2019-05-05T14:25:37.326Z,2.08
2019-05-05T14:28:06.836Z,2.25
2019-05-05T14:30:38.155Z,3.45
2019-05-05T14:33:09.387Z,2.58
2019-05-05T14:35:40.586Z,2.25
2019-05-05T14:38:14.591Z,2.00
2019-05-05T14:40:45.196Z,2.05
2019-05-05T14:43:16.898Z,2.27
2019-05-05T14:45:46.544Z,2.08
2019-05-05T14:48:16.032Z,2.35
2019-05-05T14:50:45.498Z,2.10
2019-05-05T14:53:15.087Z,2.33
2019-05-05T14:55:44.559Z,1.98
2019-05-05T14:58:14.391Z,2.10
2019-05-05T15:00:44.280Z,2.22
2019-05-05T15:03:14.058Z,2.22
2019-05-05T15:05:48.320Z,2.40
2019-05-05T15:08:19.464Z,2.15
2019-05-05T15:10:50.588Z,3.20
2019-05-05T15:13:21.892Z,1.90
2019-05-05T15:15:51.488Z,1.95
2019-05-05T15:18:21.009Z,1.90
2019-05-05T15:20:51.872Z,2.08
2019-05-05T15:23:23.861Z,1.98
2019-05-05T15:25:54.003Z,2.00
2019-05-05T15:28:24.489Z,2.17
2019-05-05T15:30:54.610Z,2.15
2019-05-05T15:35:54.811Z,1.87
2019-05-05T15:38:24.521Z,2.10
2019-05-05T15:40:54.658Z,1.65
2019-05-05T15:43:36.796Z,1.60
2019-05-05T15:46:06.350Z,1.72
2019-05-05T15:48:36.750Z,1.92
2019-05-05T15:51:06.335Z,1.80
2019-05-05T15:53:35.831Z,1.67
2019-05-05T15:56:06.463Z,1.60
2019-05-05T15:58:35.971Z,1.70
2019-05-05T16:01:05.607Z,1.42
2019-05-05T16:03:35.128Z,1.47
2019-05-05T16:06:04.756Z,1.45
2019-05-05T16:08:34.264Z,1.80
2019-05-05T16:11:03.943Z,1.30
2019-05-05T16:13:35.260Z,1.20
2019-05-05T16:16:09.203Z,1.50
2019-05-05T16:18:48.412Z,1.50
2019-05-05T16:21:36.699Z,1.70
2019-05-05T16:24:07.895Z,1.40
2019-05-05T16:26:37.346Z,1.65
2019-05-05T16:29:06.810Z,2.08
2019-05-05T16:31:36.258Z,2.12
2019-05-05T16:34:05.745Z,2.30
2019-05-05T16:36:35.322Z,1.57
2019-05-05T16:39:06.402Z,1.80
2019-05-05T16:41:37.458Z,1.80
2019-05-05T16:44:06.994Z,1.60
2019-05-05T16:46:36.511Z,1.90
2019-05-05T16:49:06.114Z,1.52
2019-05-05T16:51:37.199Z,1.67
2019-05-05T16:54:08.391Z,1.57
2019-05-05T16:56:37.822Z,1.75
2019-05-05T16:59:07.291Z,1.80
2019-05-05T17:01:36.730Z,1.60
2019-05-05T17:04:11.288Z,1.92
2019-05-05T17:06:37.330Z,1.50
2019-05-05T17:09:07.139Z,1.40
2019-05-05T17:11:36.860Z,1.37
2019-05-05T17:14:14.326Z,2.60
2019-05-05T17:16:48.497Z,1.60
2019-05-05T17:19:19.611Z,1.72
2019-05-05T17:21:53.721Z,1.75
2019-05-05T17:24:24.046Z,1.32
2019-05-05T17:26:54.971Z,1.70
2019-05-05T17:29:55.580Z,1.40
2019-05-05T17:32:25.098Z,1.72
2019-05-05T17:34:55.644Z,2.00
2019-05-05T17:37:25.149Z,2.30
2019-05-05T17:39:56.261Z,1.57
2019-05-05T17:42:30.278Z,1.60
2019-05-05T17:45:14.183Z,1.70
2019-05-05T17:48:00.313Z,1.85
2019-05-05T17:50:48.662Z,1.82
2019-05-05T17:53:19.776Z,1.60
2019-05-05T17:55:51.561Z,1.75
2019-05-05T17:58:21.042Z,1.42
2019-05-05T18:00:54.203Z,1.37
2019-05-05T18:03:23.314Z,1.70
2019-05-05T18:06:05.813Z,1.45
2019-05-05T18:08:36.449Z,1.77
2019-05-05T18:11:10.476Z,1.60
2019-05-05T18:13:43.409Z,1.80
2019-05-05T18:16:14.005Z,1.70
2019-05-05T18:18:44.476Z,2.05
2019-05-05T18:21:14.404Z,1.80
2019-05-05T18:23:44.090Z,1.90
2019-05-05T18:26:13.781Z,1.90
2019-05-05T18:28:44.746Z,1.75
2019-05-05T18:31:14.952Z,1.70
2019-05-05T18:36:14.199Z,1.80
2019-05-05T18:38:44.509Z,1.50
2019-05-05T18:41:21.195Z,1.55
2019-05-05T18:44:01.508Z,1.70
2019-05-05T18:46:31.076Z,1.67
2019-05-05T18:49:00.673Z,1.72
2019-05-05T18:51:30.173Z,2.10
2019-05-05T18:53:59.735Z,2.30
2019-05-05T18:56:29.242Z,2.00
2019-05-05T18:58:58.723Z,2.45
2019-05-05T19:01:33.781Z,1.90
2019-05-05T19:04:04.992Z,1.87
2019-05-05T19:06:54.646Z,2.33
2019-05-05T19:09:24.888Z,2.08
2019-05-05T19:11:54.761Z,1.90
2019-05-05T19:14:24.377Z,2.20
2019-05-05T19:16:55.739Z,1.92
2019-05-05T19:19:27.341Z,1.90
2019-05-05T19:22:04.219Z,2.10
2019-05-05T19:24:35.430Z,2.22
2019-05-05T19:27:05.111Z,2.00
2019-05-05T19:29:34.652Z,2.20
2019-05-05T19:32:04.347Z,2.00
2019-05-05T19:34:35.396Z,2.55
2019-05-05T19:37:24.017Z,1.90
2019-05-05T19:39:53.719Z,2.22
2019-05-05T19:42:23.967Z,2.92
2019-05-05T19:44:54.452Z,2.40
2019-05-05T19:47:24.621Z,2.40
2019-05-05T19:49:55.991Z,1.82
2019-05-05T19:52:25.482Z,1.92
2019-05-05T19:54:54.971Z,1.75
2019-05-05T19:57:24.464Z,1.90
2019-05-05T19:59:54.355Z,2.08
2019-05-05T20:04:54.351Z,1.52
2019-05-05T20:07:24.844Z,1.80
2019-05-05T20:13:06.842Z,1.52
2019-05-05T20:15:49.905Z,1.92
2019-05-05T20:18:19.371Z,1.60
2019-05-05T20:21:00.906Z,1.82
2019-05-05T20:23:20.132Z,1.95
2019-05-05T20:25:49.713Z,1.80
2019-05-05T20:28:19.240Z,2.05
2019-05-05T20:30:48.837Z,2.10
2019-05-05T20:33:24.279Z,2.08
2019-05-05T20:35:55.733Z,2.20
2019-05-05T20:38:29.791Z,1.98
2019-05-05T20:41:14.243Z,2.15
2019-05-05T20:43:44.853Z,1.90
2019-05-05T20:46:14.742Z,1.92
2019-05-05T20:48:45.025Z,1.90
2019-05-05T20:51:14.676Z,2.27
2019-05-05T20:53:45.222Z,2.33
2019-05-05T20:56:15.483Z,1.92
2019-05-05T20:58:45.044Z,2.15
2019-05-05T21:01:14.624Z,1.95
2019-05-05T21:03:44.113Z,2.27
2019-05-05T21:06:14.002Z,2.00
2019-05-05T21:08:44.642Z,1.85
2019-05-05T21:11:14.380Z,1.75
2019-05-05T21:16:14.407Z,2.00
2019-05-05T21:18:43.975Z,1.70
2019-05-05T21:21:15.163Z,2.05
2019-05-05T21:23:46.283Z,1.95
2019-05-05T21:26:17.412Z,2.08
2019-05-05T21:28:46.911Z,1.80
2019-05-05T21:31:16.383Z,1.80
2019-05-05T21:33:45.879Z,1.90
2019-05-05T21:36:15.359Z,2.20
2019-05-05T21:38:44.883Z,2.08
2019-05-05T21:41:14.371Z,1.90
2019-05-05T21:43:44.888Z,2.10
2019-05-05T21:46:14.587Z,2.20
2019-05-05T21:48:44.851Z,2.35
2019-05-05T21:51:26.010Z,2.58
2019-05-05T21:56:34.165Z,2.98
2019-05-05T21:59:04.200Z,2.60
2019-05-05T22:01:39.966Z,3.58
2019-05-05T22:04:05.844Z,3.37
2019-05-05T22:06:35.459Z,2.77
2019-05-05T22:09:07.153Z,3.00
2019-05-05T22:11:37.520Z,2.60
2019-05-05T22:14:07.008Z,2.50
2019-05-05T22:16:36.491Z,2.67
2019-05-05T22:19:07.051Z,3.12
2019-05-05T22:21:40.613Z,2.90
2019-05-05T22:24:15.913Z,2.98
2019-05-05T22:26:45.851Z,2.60
2019-05-05T22:29:16.926Z,3.00
2019-05-05T22:31:46.783Z,2.67
2019-05-05T22:34:16.361Z,2.80
2019-05-05T22:36:45.889Z,2.47
2019-05-05T22:39:17.051Z,2.65
2019-05-05T22:41:46.815Z,2.30
2019-05-05T22:44:16.387Z,2.72
2019-05-05T22:46:46.409Z,2.70
2019-05-05T22:49:15.898Z,3.10
2019-05-05T22:51:45.449Z,3.00
2019-05-05T22:54:15.203Z,2.60
2019-05-05T22:56:45.911Z,2.33
2019-05-05T22:59:15.407Z,2.35
2019-05-05T23:01:44.948Z,2.55
2019-05-05T23:04:18.826Z,3.45
2019-05-05T23:07:03.858Z,3.00
2019-05-05T23:09:33.043Z,2.40
2019-05-05T23:12:04.252Z,2.70
2019-05-05T23:14:34.381Z,2.98
2019-05-05T23:17:05.535Z,2.87
2019-05-05T23:19:45.482Z,1.92
2019-05-05T23:22:16.681Z,2.85
2019-05-05T23:24:48.879Z,2.40
2019-05-05T23:27:36.348Z,2.45
2019-05-05T23:30:07.502Z,2.77
2019-05-05T23:32:36.970Z,2.87
2019-05-05T23:35:06.925Z,2.87
2019-05-05T23:37:36.371Z,3.17
2019-05-05T23:40:06.839Z,2.90
2019-05-05T23:42:36.300Z,2.80
2019-05-05T23:45:06.460Z,3.08
2019-05-05T23:47:35.916Z,2.77
2019-05-05T23:50:08.166Z,3.12
2019-05-05T23:52:37.646Z,2.72
2019-05-05T23:55:07.692Z,3.17
2019-05-05T23:57:37.630Z,2.80
